Taiseimaru — JL6483 — position and weather

sailwx.info

Track history (hours):
 
Tides and Currents Weather Stations Pressure Air Temp Water Temp Dewpoint Dewpoint Depression Visibility Wind Speed Wind Dir Waves Ship Positions

Taiseimaru

Last reported at 2015-Jan-26 11:31 UTC. Time now 2015-Jan-26 12:30 UTC.
Position N 35°25' E 139°45'.

Length 84 m; draft 4.7 m.

Type: Cargo ship. MMSI: 431500568.

Date/timePositionNaut miles runAvg speedWind from/ knotsBaromVisibWave heightAir tempDewpointWater temp
2015-Jan-26 11:31N 35°25' E 139°45'0 0.0
2015-Jan-26 10:28N 35°25' E 139°45'0 0.0
2015-Jan-26 09:31N 35°25' E 139°45'0 0.0
2015-Jan-26 08:31N 35°25' E 139°45'0 0.0
2015-Jan-26 07:31N 35°25' E 139°45'0 0.0
2015-Jan-26 06:31N 35°25' E 139°45'0 0.0
2015-Jan-26 05:31N 35°25' E 139°45'0 0.1
2015-Jan-26 04:31N 35°25' E 139°45'0 0.0
2015-Jan-26 03:31N 35°25' E 139°45'0 0.0
2015-Jan-26 02:31N 35°25' E 139°45'0 0.0
2015-Jan-26 01:31N 35°25' E 139°45'0 0.0
2015-Jan-26 00:25N 35°25' E 139°45'0 0.0
2015-Jan-25 23:31N 35°25' E 139°45'0 0.0
2015-Jan-25 22:31N 35°25' E 139°45'0 0.0
2015-Jan-25 21:28N 35°25' E 139°45'0 0.0
2015-Jan-25 20:31N 35°25' E 139°45'0 0.0
2015-Jan-25 19:31N 35°25' E 139°45'0 0.1
2015-Jan-25 18:31N 35°25' E 139°45'0 0.0
2015-Jan-25 17:31N 35°25' E 139°45'0 0.0
2015-Jan-25 16:33N 35°25' E 139°45'0 0.0
2015-Jan-25 15:33N 35°25' E 139°45'0 0.0
2015-Jan-25 14:30N 35°25' E 139°45'0 0.1
2015-Jan-25 13:33N 35°25' E 139°45'0 0.0
2015-Jan-25 12:30N 35°25' E 139°45'0 0.0
2015-Jan-25 11:33N 35°25' E 139°45'0 0.1
2015-Jan-25 10:33N 35°25' E 139°45'0 0.0
2015-Jan-25 09:33N 35°25' E 139°45'0 0.0
2015-Jan-25 08:30N 35°25' E 139°45'0 0.1
2015-Jan-25 07:33N 35°25' E 139°45'0 0.0
2015-Jan-25 06:33N 35°25' E 139°45'0 0.1
2015-Jan-25 05:33N 35°25' E 139°45'0 0.0
2015-Jan-25 04:30N 35°25' E 139°45'0 0.0
2015-Jan-25 03:30N 35°25' E 139°45'0 0.0
2015-Jan-25 02:30N 35°25' E 139°45'0 0.0
2015-Jan-25 01:30N 35°25' E 139°45'0 0.0
2015-Jan-25 00:30N 35°25' E 139°45'0 0.0
2015-Jan-24 23:30N 35°25' E 139°45'0 0.0
2015-Jan-24 22:33N 35°25' E 139°45'0 0.1
2015-Jan-24 21:33N 35°25' E 139°45'0 0.1
2015-Jan-24 20:33N 35°25' E 139°45'9 8.7
2015-Jan-24 19:33N 35°16' E 139°46'1211.7
2015-Jan-24 18:33N 35°04' E 139°45'1110.8
2015-Jan-24 17:34N 34°54' E 139°47'1311.6
2015-Jan-24 16:29N 34°56' E 140°02'1611.5
2015-Jan-24 15:07N 35°05' E 140°18'  
2015-Jan-17 21:28N 34°57' E 139°45'1010.9
2015-Jan-17 20:33N 35°07' E 139°45'1111.1
2015-Jan-17 19:33N 35°18' E 139°44'5 4.5
2015-Jan-17 18:31N 35°21' E 139°40'0 0.0
2015-Jan-17 17:31N 35°21' E 139°40'0 0.0
2015-Jan-17 16:31N 35°21' E 139°40'0 0.0
2015-Jan-17 15:31N 35°21' E 139°40'0 0.0
2015-Jan-17 14:31N 35°21' E 139°40'0 0.0
2015-Jan-17 13:31N 35°21' E 139°40'0 0.0
2015-Jan-17 12:31N 35°21' E 139°40'0 0.0
2015-Jan-17 11:31N 35°21' E 139°40'0 0.0
2015-Jan-17 10:31N 35°21' E 139°40'0 0.0
2015-Jan-17 09:31N 35°21' E 139°40'0 0.0
2015-Jan-17 08:31N 35°21' E 139°40'0 0.0
2015-Jan-17 07:34N 35°21' E 139°40'0 0.0
2015-Jan-17 06:33N 35°21' E 139°40'0 0.0
2015-Jan-17 05:33N 35°21' E 139°40'0 0.0
2015-Jan-17 04:33N 35°21' E 139°40'0 0.0
2015-Jan-17 03:33N 35°21' E 139°40'0 0.0
2015-Jan-17 02:33N 35°21' E 139°40'0 0.0
2015-Jan-17 01:33N 35°21' E 139°40'0 0.1
2015-Jan-17 00:30N 35°21' E 139°40'0 0.0
2015-Jan-16 23:33N 35°21' E 139°40'0 0.0
2015-Jan-16 22:33N 35°21' E 139°40'0 0.0
2015-Jan-16 21:33N 35°21' E 139°40'0 0.1
2015-Jan-16 20:30N 35°21' E 139°40'0 0.1
2015-Jan-16 19:33N 35°21' E 139°40'0 0.1
2015-Jan-16 18:33N 35°21' E 139°40'7 7.1
2015-Jan-16 17:33N 35°28' E 139°43'1 0.8
2015-Jan-16 16:31N 35°28' E 139°42'0 0.0
2015-Jan-16 15:31N 35°28' E 139°42'0 0.0
2015-Jan-16 14:31N 35°28' E 139°42'0 0.0
2015-Jan-16 13:31N 35°28' E 139°42'0 0.0
2015-Jan-16 12:31N 35°28' E 139°42'  
Track history (hours):
 
Tides and Currents Weather Stations Pressure Air Temp Water Temp Dewpoint Dewpoint Depression Visibility Wind Speed Wind Dir Waves Ship Positions

Taiseimaru

Last reported at 2015-Jan-26 11:31 UTC. Time now 2015-Jan-26 12:30 UTC.
Position N 35°25' E 139°45'.

Length 84 m; draft 4.7 m.

Type: Cargo ship. MMSI: 431500568.

Date/timePositionNaut miles runAvg speedWind from/ knotsBaromVisibWave heightAir tempDewpointWater temp
2015-Jan-26 11:31N 35°25' E 139°45'0 0.0
2015-Jan-26 10:28N 35°25' E 139°45'0 0.0
2015-Jan-26 09:31N 35°25' E 139°45'0 0.0
2015-Jan-26 08:31N 35°25' E 139°45'0 0.0
2015-Jan-26 07:31N 35°25' E 139°45'0 0.0
2015-Jan-26 06:31N 35°25' E 139°45'0 0.0
2015-Jan-26 05:31N 35°25' E 139°45'0 0.1
2015-Jan-26 04:31N 35°25' E 139°45'0 0.0
2015-Jan-26 03:31N 35°25' E 139°45'0 0.0
2015-Jan-26 02:31N 35°25' E 139°45'0 0.0
2015-Jan-26 01:31N 35°25' E 139°45'0 0.0
2015-Jan-26 00:25N 35°25' E 139°45'0 0.0
2015-Jan-25 23:31N 35°25' E 139°45'0 0.0
2015-Jan-25 22:31N 35°25' E 139°45'0 0.0
2015-Jan-25 21:28N 35°25' E 139°45'0 0.0
2015-Jan-25 20:31N 35°25' E 139°45'0 0.0
2015-Jan-25 19:31N 35°25' E 139°45'0 0.1
2015-Jan-25 18:31N 35°25' E 139°45'0 0.0
2015-Jan-25 17:31N 35°25' E 139°45'0 0.0
2015-Jan-25 16:33N 35°25' E 139°45'0 0.0
2015-Jan-25 15:33N 35°25' E 139°45'0 0.0
2015-Jan-25 14:30N 35°25' E 139°45'0 0.1
2015-Jan-25 13:33N 35°25' E 139°45'0 0.0
2015-Jan-25 12:30N 35°25' E 139°45'0 0.0
2015-Jan-25 11:33N 35°25' E 139°45'0 0.1
2015-Jan-25 10:33N 35°25' E 139°45'0 0.0
2015-Jan-25 09:33N 35°25' E 139°45'0 0.0
2015-Jan-25 08:30N 35°25' E 139°45'0 0.1
2015-Jan-25 07:33N 35°25' E 139°45'0 0.0
2015-Jan-25 06:33N 35°25' E 139°45'0 0.1
2015-Jan-25 05:33N 35°25' E 139°45'0 0.0
2015-Jan-25 04:30N 35°25' E 139°45'0 0.0
2015-Jan-25 03:30N 35°25' E 139°45'0 0.0
2015-Jan-25 02:30N 35°25' E 139°45'0 0.0
2015-Jan-25 01:30N 35°25' E 139°45'0 0.0
2015-Jan-25 00:30N 35°25' E 139°45'0 0.0
2015-Jan-24 23:30N 35°25' E 139°45'0 0.0
2015-Jan-24 22:33N 35°25' E 139°45'0 0.1
2015-Jan-24 21:33N 35°25' E 139°45'0 0.1
2015-Jan-24 20:33N 35°25' E 139°45'9 8.7
2015-Jan-24 19:33N 35°16' E 139°46'1211.7
2015-Jan-24 18:33N 35°04' E 139°45'1110.8
2015-Jan-24 17:34N 34°54' E 139°47'1311.6
2015-Jan-24 16:29N 34°56' E 140°02'1611.5
2015-Jan-24 15:07N 35°05' E 140°18'  
2015-Jan-17 21:28N 34°57' E 139°45'1010.9
2015-Jan-17 20:33N 35°07' E 139°45'1111.1
2015-Jan-17 19:33N 35°18' E 139°44'5 4.5
2015-Jan-17 18:31N 35°21' E 139°40'0 0.0
2015-Jan-17 17:31N 35°21' E 139°40'0 0.0
2015-Jan-17 16:31N 35°21' E 139°40'0 0.0
2015-Jan-17 15:31N 35°21' E 139°40'0 0.0
2015-Jan-17 14:31N 35°21' E 139°40'0 0.0
2015-Jan-17 13:31N 35°21' E 139°40'0 0.0
2015-Jan-17 12:31N 35°21' E 139°40'0 0.0
2015-Jan-17 11:31N 35°21' E 139°40'0 0.0
2015-Jan-17 10:31N 35°21' E 139°40'0 0.0
2015-Jan-17 09:31N 35°21' E 139°40'0 0.0
2015-Jan-17 08:31N 35°21' E 139°40'0 0.0
2015-Jan-17 07:34N 35°21' E 139°40'0 0.0
2015-Jan-17 06:33N 35°21' E 139°40'0 0.0
2015-Jan-17 05:33N 35°21' E 139°40'0 0.0
2015-Jan-17 04:33N 35°21' E 139°40'0 0.0
2015-Jan-17 03:33N 35°21' E 139°40'0 0.0
2015-Jan-17 02:33N 35°21' E 139°40'0 0.0
2015-Jan-17 01:33N 35°21' E 139°40'0 0.1
2015-Jan-17 00:30N 35°21' E 139°40'0 0.0
2015-Jan-16 23:33N 35°21' E 139°40'0 0.0
2015-Jan-16 22:33N 35°21' E 139°40'0 0.0
2015-Jan-16 21:33N 35°21' E 139°40'0 0.1
2015-Jan-16 20:30N 35°21' E 139°40'0 0.1
2015-Jan-16 19:33N 35°21' E 139°40'0 0.1
2015-Jan-16 18:33N 35°21' E 139°40'7 7.1
2015-Jan-16 17:33N 35°28' E 139°43'1 0.8
2015-Jan-16 16:31N 35°28' E 139°42'0 0.0
2015-Jan-16 15:31N 35°28' E 139°42'0 0.0
2015-Jan-16 14:31N 35°28' E 139°42'0 0.0
2015-Jan-16 13:31N 35°28' E 139°42'0 0.0
2015-Jan-16 12:31N 35°28' E 139°42'  

Dump ship's entire track history